Archival Weather

Norman Y Mineta San Jose Intl

San Jose, California (KSJC)

Report from: Sunday, February 11, 2024 5:53 PM PST
Current time: Monday, June 24, 2024 2:08 AM PDT

Current weather – Weather history – Daily summaries
Weather forecast

Temperature12.2°C (54.0°F)
Dew point6.7°C (44.1°F)
Winds 6 kts (3.1 m/s, 6.9 mph) Northwest (320°)
Visibility10 mi. (16.1 km)
Clouds Few clouds 7,500 ft. (2,286 m)
Few clouds 13,000 ft. (3,962 m)
Scattered clouds 20,000 ft. (6,096 m)
Altimeter30.19 in.Hg (1022 mB)
Relative humidity69 %
Density altitude-493 ft. (-150 m)
Sea-level pressure102.2 kPa (1022 mB, 30.19 in.Hg)
Remarks Automated weather observing station with precipitation discriminator
Flight conditions Visual Meteorological Conditions
Raw dataKSJC 120153Z 32006KT 10SM FEW075 FEW130 SCT200 12/07 A3019 RMK AO2 SLP222 T01220067
An error has occurred. This application may no longer respond until reloaded. Reload 🗙